createdAt,value
2023-02-28T00:03:06.101Z,102546.91
2023-02-28T00:08:28.869Z,102544.89
2023-02-28T00:13:54.302Z,102546.14
2023-02-28T00:19:16.729Z,102548.84
2023-02-28T00:24:39.038Z,102548.84
2023-02-28T00:30:02.361Z,102548.31
2023-02-28T00:35:26.436Z,102555.34
2023-02-28T00:40:49.225Z,102548.22
2023-02-28T00:46:12.003Z,102549.61
2023-02-28T00:51:34.316Z,102554.50
2023-02-28T00:56:56.588Z,102547.14
2023-02-28T01:02:19.856Z,102545.58
2023-02-28T01:07:42.897Z,102549.56
2023-02-28T01:13:05.203Z,102554.27
2023-02-28T01:18:28.333Z,102562.47
2023-02-28T01:23:50.644Z,102563.69
2023-02-28T01:29:13.605Z,102569.49
2023-02-28T01:34:35.877Z,102559.45
2023-02-28T01:39:58.141Z,102549.03
2023-02-28T01:45:36.437Z,102549.00
2023-02-28T01:51:02.705Z,102549.98
2023-02-28T01:56:30.178Z,102541.14
2023-02-28T02:01:53.027Z,102537.14
2023-02-28T02:07:15.453Z,102544.45
2023-02-28T02:13:16.956Z,102546.11
2023-02-28T02:18:51.755Z,102531.75
2023-02-28T02:24:42.670Z,102539.71
2023-02-28T02:30:24.702Z,102544.09
2023-02-28T02:36:13.236Z,102540.98
2023-02-28T02:41:54.731Z,102551.28
2023-02-28T02:47:27.179Z,102555.49
2023-02-28T02:52:54.264Z,102554.34
2023-02-28T02:58:23.863Z,102548.97
2023-02-28T03:03:48.051Z,102554.04
2023-02-28T03:09:10.633Z,102551.20
2023-02-28T03:15:01.484Z,102550.73
2023-02-28T03:20:36.970Z,102551.34
2023-02-28T03:26:22.508Z,102544.17
2023-02-28T03:32:01.825Z,102557.55
2023-02-28T03:37:28.487Z,102564.70
2023-02-28T03:42:54.400Z,102563.39
2023-02-28T03:48:24.436Z,102558.41
2023-02-28T03:53:54.366Z,102568.64
2023-02-28T03:59:40.104Z,102574.97
2023-02-28T04:05:02.337Z,102580.83
2023-02-28T04:10:25.472Z,102576.34
2023-02-28T04:15:47.674Z,102580.74
2023-02-28T04:21:11.803Z,102573.66
2023-02-28T04:26:38.697Z,102573.30
2023-02-28T04:32:01.940Z,102575.59
2023-02-28T04:37:26.417Z,102581.97
2023-02-28T04:42:48.829Z,102586.95
2023-02-28T04:48:11.130Z,102594.28
2023-02-28T04:53:33.688Z,102596.28
2023-02-28T04:58:56.057Z,102582.38
2023-02-28T05:04:19.526Z,102595.98
2023-02-28T05:09:41.854Z,102595.76
2023-02-28T05:15:04.075Z,102607.73
2023-02-28T05:20:27.025Z,102605.70
2023-02-28T05:25:49.251Z,102603.16
2023-02-28T05:31:12.046Z,102609.50
2023-02-28T05:36:34.497Z,102604.98
2023-02-28T05:41:57.462Z,102599.86
2023-02-28T05:47:19.686Z,102604.98
2023-02-28T05:52:42.778Z,102612.12
2023-02-28T05:58:05.133Z,102608.14
2023-02-28T06:03:27.610Z,102614.42
2023-02-28T06:08:49.965Z,102616.39
2023-02-28T06:14:23.524Z,102617.67
2023-02-28T06:19:46.001Z,102613.47
2023-02-28T06:25:08.520Z,102626.60
2023-02-28T06:36:05.608Z,102632.55
2023-02-28T06:41:32.714Z,102626.59
2023-02-28T06:46:54.768Z,102642.16
2023-02-28T06:52:17.033Z,102638.27
2023-02-28T06:57:44.239Z,102648.23
2023-02-28T07:03:06.943Z,102640.87
2023-02-28T07:08:30.030Z,102655.49
2023-02-28T07:13:52.281Z,102661.85
2023-02-28T07:19:14.901Z,102656.57
2023-02-28T07:24:37.622Z,102648.63
2023-02-28T07:30:02.058Z,102657.83
2023-02-28T07:35:25.788Z,102650.26
2023-02-28T07:40:49.736Z,102648.94
2023-02-28T07:46:17.202Z,102649.20
2023-02-28T07:51:40.799Z,102651.17
2023-02-28T07:57:03.559Z,102654.02
2023-02-28T08:02:29.737Z,102646.42
2023-02-28T08:07:51.969Z,102652.83
2023-02-28T08:13:14.612Z,102653.08
2023-02-28T08:18:37.434Z,102654.16
2023-02-28T08:24:03.646Z,102654.28
2023-02-28T08:29:25.863Z,102653.55
2023-02-28T08:34:48.293Z,102643.92
2023-02-28T08:40:10.787Z,102641.32
2023-02-28T08:45:37.188Z,102632.59
2023-02-28T08:51:07.565Z,102629.97
2023-02-28T08:56:30.592Z,102615.94
2023-02-28T09:01:52.765Z,102616.83
2023-02-28T09:07:17.407Z,102624.72
2023-02-28T09:12:43.218Z,102628.17
2023-02-28T09:18:05.528Z,102632.58
2023-02-28T09:23:29.397Z,102631.69
2023-02-28T09:28:52.577Z,102627.22
2023-02-28T09:34:18.953Z,102619.26
2023-02-28T09:39:42.215Z,102623.61
2023-02-28T09:45:07.204Z,102638.55
2023-02-28T09:50:43.388Z,102636.63
2023-02-28T09:56:27.150Z,102641.85
2023-02-28T10:02:15.143Z,102628.42
2023-02-28T10:07:50.846Z,102622.13
2023-02-28T10:13:21.888Z,102623.73
2023-02-28T10:18:49.073Z,102627.02
2023-02-28T10:24:22.086Z,102615.80
2023-02-28T10:29:45.842Z,102616.73
2023-02-28T10:35:31.226Z,102606.86
2023-02-28T10:40:54.674Z,102593.55
2023-02-28T10:46:32.743Z,102591.32
2023-02-28T10:52:02.094Z,102595.77
2023-02-28T10:57:30.857Z,102587.11
2023-02-28T11:02:54.929Z,102587.81
2023-02-28T11:08:21.783Z,102577.38
2023-02-28T11:13:52.129Z,102574.12
2023-02-28T11:19:17.504Z,102577.73
2023-02-28T11:24:49.837Z,102575.80
2023-02-28T11:30:13.228Z,102564.42
2023-02-28T11:35:46.329Z,102560.19
2023-02-28T11:41:25.421Z,102561.80
2023-02-28T11:46:58.121Z,102550.71
2023-02-28T11:52:49.655Z,102550.00
2023-02-28T11:58:25.648Z,102546.24
2023-02-28T12:03:58.720Z,102547.09
2023-02-28T12:09:38.339Z,102529.78
2023-02-28T12:15:43.182Z,102524.93
2023-02-28T12:21:43.390Z,102518.28
2023-02-28T12:27:09.012Z,102521.59
2023-02-28T12:32:54.590Z,102522.30
2023-02-28T12:38:27.535Z,102515.81
2023-02-28T12:43:57.564Z,102522.55
2023-02-28T12:49:39.978Z,102508.66
2023-02-28T12:55:10.620Z,102501.84
2023-02-28T13:00:43.538Z,102488.19
2023-02-28T13:06:33.757Z,102489.25
2023-02-28T13:12:06.332Z,102468.34
2023-02-28T13:17:35.370Z,102465.77
2023-02-28T13:23:06.980Z,102473.43
2023-02-28T13:28:49.802Z,102467.63
2023-02-28T13:34:22.606Z,102462.45
2023-02-28T13:40:01.240Z,102448.37
2023-02-28T13:45:35.993Z,102451.80
2023-02-28T13:51:00.714Z,102447.05
2023-02-28T13:56:46.164Z,102454.72
2023-02-28T14:02:29.735Z,102450.41
2023-02-28T14:13:58.490Z,102420.08
2023-02-28T14:19:31.019Z,102419.97
2023-02-28T14:25:24.757Z,102427.16
2023-02-28T14:31:17.704Z,102424.57
2023-02-28T14:36:44.427Z,102416.03
2023-02-28T14:42:08.959Z,102406.75
2023-02-28T14:47:34.851Z,102404.34
2023-02-28T14:53:00.197Z,102404.16
2023-02-28T14:58:41.191Z,102407.13
2023-02-28T15:04:16.410Z,102408.75
2023-02-28T15:09:38.956Z,102418.67
2023-02-28T15:15:03.588Z,102412.32
2023-02-28T15:20:29.638Z,102409.58
2023-02-28T15:25:53.913Z,102413.78
2023-02-28T15:31:36.181Z,102399.61
2023-02-28T15:36:55.264Z,102402.06
2023-02-28T15:42:38.863Z,102398.65
2023-02-28T15:48:13.735Z,102402.13
2023-02-28T15:53:32.244Z,102399.27
2023-02-28T15:58:55.624Z,102408.03
2023-02-28T16:04:33.454Z,102403.91
2023-02-28T16:09:55.924Z,102401.55
2023-02-28T16:15:27.529Z,102396.75
2023-02-28T16:20:51.232Z,102395.94
2023-02-28T16:26:13.994Z,102402.31
2023-02-28T16:31:36.695Z,102424.95
2023-02-28T16:37:02.309Z,102426.14
2023-02-28T16:42:33.851Z,102436.07
2023-02-28T16:47:56.286Z,102438.89
2023-02-28T16:53:19.104Z,102437.29
2023-02-28T16:58:42.212Z,102433.84
2023-02-28T17:04:04.771Z,102430.36
2023-02-28T17:09:41.981Z,102427.70
2023-02-28T17:14:58.587Z,102431.22
2023-02-28T17:20:25.284Z,102426.78
2023-02-28T17:25:49.594Z,102427.66
2023-02-28T17:31:12.123Z,102424.09
2023-02-28T17:36:38.187Z,102417.92
2023-02-28T17:42:01.950Z,102411.74
2023-02-28T17:47:26.337Z,102406.45
2023-02-28T17:52:48.922Z,102404.61
2023-02-28T17:58:11.777Z,102391.36
2023-02-28T18:03:34.740Z,102390.53
2023-02-28T18:08:57.831Z,102391.45
2023-02-28T18:14:22.066Z,102377.41
2023-02-28T18:19:45.425Z,102376.57
2023-02-28T18:25:09.502Z,102370.27
2023-02-28T18:30:35.302Z,102373.72
2023-02-28T18:35:59.942Z,102379.92
2023-02-28T18:41:26.595Z,102375.48
2023-02-28T18:46:49.677Z,102380.67
2023-02-28T18:52:12.749Z,102386.87
2023-02-28T18:57:36.116Z,102373.72
2023-02-28T19:02:59.076Z,102384.24
2023-02-28T19:08:23.343Z,102372.84
2023-02-28T19:13:47.226Z,102384.06
2023-02-28T19:19:10.719Z,102382.24
2023-02-28T19:24:33.836Z,102396.52
2023-02-28T19:29:59.724Z,102395.45
2023-02-28T19:35:24.539Z,102394.64
2023-02-28T19:40:49.158Z,102391.06
2023-02-28T19:46:13.725Z,102390.18
2023-02-28T19:51:38.538Z,102401.78
2023-02-28T19:57:02.324Z,102409.05
2023-02-28T20:02:31.851Z,102414.22
2023-02-28T20:07:56.222Z,102416.69
2023-02-28T20:13:25.745Z,102416.69
2023-02-28T20:18:47.221Z,102417.42
2023-02-28T20:24:11.828Z,102409.47
2023-02-28T20:29:34.935Z,102427.64
2023-02-28T20:34:59.608Z,102417.14
2023-02-28T20:40:22.862Z,102412.84
2023-02-28T20:45:47.445Z,102404.88
2023-02-28T20:51:13.197Z,102401.12
2023-02-28T20:56:39.514Z,102409.15
2023-02-28T21:02:04.403Z,102414.31
2023-02-28T21:07:29.321Z,102410.64
2023-02-28T21:12:56.133Z,102421.75
2023-02-28T21:18:20.467Z,102413.07
2023-02-28T21:23:46.584Z,102415.59
2023-02-28T21:29:16.653Z,102406.80
2023-02-28T21:34:41.975Z,102412.09
2023-02-28T21:40:06.315Z,102401.50
2023-02-28T21:45:31.596Z,102403.19
2023-02-28T21:51:07.586Z,102402.20
2023-02-28T21:56:46.561Z,102400.38
2023-02-28T22:02:11.040Z,102395.92
2023-02-28T22:07:35.368Z,102409.91
2023-02-28T22:12:59.463Z,102402.16
2023-02-28T22:18:24.232Z,102404.00
2023-02-28T22:23:49.843Z,102404.88
2023-02-28T22:29:14.481Z,102404.91
2023-02-28T22:34:38.868Z,102406.72
2023-02-28T22:40:03.594Z,102393.91
2023-02-28T22:45:27.932Z,102387.98
2023-02-28T22:50:52.741Z,102396.73
2023-02-28T22:56:18.079Z,102402.23
2023-02-28T23:01:45.246Z,102396.88
2023-02-28T23:07:10.642Z,102394.27
2023-02-28T23:12:34.323Z,102388.94
2023-02-28T23:17:59.399Z,102386.37
2023-02-28T23:23:24.137Z,102373.25
2023-02-28T23:28:48.767Z,102366.30
2023-02-28T23:34:13.564Z,102379.31
2023-02-28T23:39:38.820Z,102386.13
2023-02-28T23:45:03.528Z,102393.80
2023-02-28T23:50:27.391Z,102395.36
2023-02-28T23:55:55.995Z,102406.76
